createdAt,value
2023-02-01T00:00:00.832Z,6.30
2023-02-01T00:02:48.764Z,6.40
2023-02-01T00:05:36.344Z,6.30
2023-02-01T00:08:28.147Z,6.30
2023-02-01T00:11:16.922Z,6.40
2023-02-01T00:14:09.363Z,6.50
2023-02-01T00:16:57.315Z,6.90
2023-02-01T00:19:57.842Z,6.60
2023-02-01T00:22:45.877Z,6.50
2023-02-01T00:25:35.291Z,6.50
2023-02-01T00:28:25.883Z,6.50
2023-02-01T00:31:18.083Z,6.50
2023-02-01T00:34:06.792Z,8.90
2023-02-01T00:36:57.620Z,8.90
2023-02-01T00:39:45.730Z,6.60
2023-02-01T00:42:37.127Z,8.20
2023-02-01T00:45:45.267Z,6.80
2023-02-01T00:48:36.442Z,6.50
2023-02-01T00:51:25.479Z,6.50
2023-02-01T00:54:16.739Z,6.50
2023-02-01T00:57:13.840Z,6.60
2023-02-01T01:00:02.523Z,6.50
2023-02-01T01:02:50.208Z,6.50
2023-02-01T01:05:39.643Z,4.40
2023-02-01T01:08:27.543Z,6.50
2023-02-01T01:11:16.254Z,6.50
2023-02-01T01:14:08.597Z,6.50
2023-02-01T01:16:58.018Z,6.80
2023-02-01T01:19:46.102Z,4.40
2023-02-01T01:22:36.821Z,6.60
2023-02-01T01:25:25.353Z,6.40
2023-02-01T01:28:13.641Z,8.30
2023-02-01T01:31:01.462Z,6.70
2023-02-01T01:33:52.332Z,6.50
2023-02-01T01:36:47.262Z,6.90
2023-02-01T01:39:39.684Z,6.50
2023-02-01T01:42:27.913Z,6.50
2023-02-01T01:45:23.039Z,4.30
2023-02-01T01:48:13.730Z,6.50
2023-02-01T01:51:05.675Z,6.50
2023-02-01T01:54:01.067Z,8.30
2023-02-01T01:56:54.965Z,5.20
2023-02-01T01:59:48.212Z,6.50
2023-02-01T02:02:38.928Z,6.50
2023-02-01T02:05:26.373Z,6.40
2023-02-01T02:08:14.106Z,6.50
2023-02-01T02:11:02.144Z,6.50
2023-02-01T02:13:53.628Z,6.70
2023-02-01T02:16:46.793Z,6.50
2023-02-01T02:19:52.566Z,6.50
2023-02-01T02:22:49.377Z,7.30
2023-02-01T02:26:01.500Z,6.50
2023-02-01T02:29:04.108Z,8.10
2023-02-01T02:32:09.302Z,6.50
2023-02-01T02:35:02.859Z,7.20
2023-02-01T02:37:55.847Z,6.30
2023-02-01T02:40:48.004Z,6.20
2023-02-01T02:43:57.782Z,5.40
2023-02-01T02:47:06.451Z,5.90
2023-02-01T02:50:11.014Z,6.30
2023-02-01T02:53:22.356Z,5.90
2023-02-01T02:56:28.619Z,5.90
2023-02-01T02:59:36.241Z,6.30
2023-02-01T03:02:42.324Z,6.00
2023-02-01T03:05:35.039Z,6.00
2023-02-01T03:08:27.788Z,6.00
2023-02-01T03:11:17.327Z,5.80
2023-02-01T03:14:10.043Z,5.90
2023-02-01T03:17:00.757Z,3.90
2023-02-01T03:19:51.445Z,6.10
2023-02-01T03:22:41.264Z,6.00
2023-02-01T03:25:35.201Z,6.10
2023-02-01T03:28:28.278Z,5.90
2023-02-01T03:31:20.752Z,6.10
2023-02-01T03:34:08.587Z,6.40
2023-02-01T03:37:01.797Z,6.10
2023-02-01T03:39:56.042Z,6.00
2023-02-01T03:42:48.006Z,6.20
2023-02-01T03:45:40.303Z,6.00
2023-02-01T03:48:30.084Z,7.40
2023-02-01T03:51:20.313Z,5.90
2023-02-01T03:54:09.441Z,5.80
2023-02-01T03:56:58.446Z,5.80
2023-02-01T03:59:51.684Z,5.80
2023-02-01T04:02:39.741Z,5.80
2023-02-01T04:05:28.357Z,5.80
2023-02-01T04:08:24.179Z,5.60
2023-02-01T04:11:19.381Z,5.70
2023-02-01T04:14:09.900Z,5.50
2023-02-01T04:17:02.657Z,5.50
2023-02-01T04:19:50.361Z,5.30
2023-02-01T04:22:42.916Z,5.50
2023-02-01T04:25:32.619Z,5.40
2023-02-01T04:28:21.377Z,5.30
2023-02-01T04:31:10.229Z,5.30
2023-02-01T04:33:59.997Z,5.30
2023-02-01T04:36:48.264Z,5.30
2023-02-01T04:39:36.823Z,5.30
2023-02-01T04:42:32.451Z,5.40
2023-02-01T04:45:20.308Z,8.10
2023-02-01T04:48:09.264Z,5.30
2023-02-01T04:50:58.279Z,5.20
2023-02-01T04:53:47.055Z,5.20
2023-02-01T04:56:36.060Z,5.30
2023-02-01T04:59:26.633Z,6.10
2023-02-01T05:02:23.630Z,5.40
2023-02-01T05:05:12.680Z,5.00
2023-02-01T05:08:05.784Z,5.20
2023-02-01T05:10:53.645Z,5.00
2023-02-01T05:13:52.075Z,5.00
2023-02-01T05:16:45.716Z,5.00
2023-02-01T05:19:34.286Z,4.90
2023-02-01T05:22:22.896Z,6.10
2023-02-01T05:25:13.173Z,5.00
2023-02-01T05:28:01.572Z,5.30
2023-02-01T05:30:49.327Z,4.90
2023-02-01T05:33:37.859Z,5.00
2023-02-01T05:36:25.804Z,5.10
2023-02-01T05:39:17.655Z,5.10
2023-02-01T05:42:06.889Z,4.90
2023-02-01T05:44:54.889Z,4.90
2023-02-01T05:47:42.752Z,4.80
2023-02-01T05:50:30.616Z,6.40
2023-02-01T05:53:19.025Z,4.70
2023-02-01T05:56:07.455Z,2.70
2023-02-01T05:58:56.390Z,3.90
2023-02-01T06:01:47.573Z,4.90
2023-02-01T06:04:35.298Z,4.70
2023-02-01T06:07:23.148Z,4.60
2023-02-01T06:10:11.663Z,4.60
2023-02-01T06:13:04.114Z,4.70
2023-02-01T06:15:58.327Z,4.70
2023-02-01T06:18:46.817Z,4.70
2023-02-01T06:21:34.762Z,5.10
2023-02-01T06:24:23.096Z,4.70
2023-02-01T06:27:12.283Z,5.10
2023-02-01T06:30:00.023Z,4.60
2023-02-01T06:32:54.817Z,4.60
2023-02-01T06:35:43.110Z,4.60
2023-02-01T06:38:31.522Z,4.60
2023-02-01T06:41:22.684Z,4.70
2023-02-01T06:44:10.364Z,3.80
2023-02-01T06:46:59.674Z,4.60
2023-02-01T06:49:48.970Z,4.60
2023-02-01T06:52:36.596Z,5.10
2023-02-01T06:55:28.378Z,4.70
2023-02-01T06:58:23.803Z,4.70
2023-02-01T07:01:12.028Z,3.40
2023-02-01T07:04:00.558Z,4.70
2023-02-01T07:06:51.663Z,4.50
2023-02-01T07:09:39.915Z,4.40
2023-02-01T07:12:28.252Z,7.30
2023-02-01T07:15:16.708Z,4.40
2023-02-01T07:18:04.627Z,4.40
2023-02-01T07:20:52.865Z,4.30
2023-02-01T07:23:42.365Z,4.30
2023-02-01T07:26:30.020Z,5.70
2023-02-01T07:29:18.027Z,4.10
2023-02-01T07:32:05.950Z,4.30
2023-02-01T07:34:53.832Z,4.20
2023-02-01T07:37:42.370Z,5.50
2023-02-01T07:40:31.945Z,6.10
2023-02-01T07:43:20.338Z,4.20
2023-02-01T07:46:09.622Z,4.20
2023-02-01T07:49:00.745Z,4.30
2023-02-01T07:51:52.066Z,4.30
2023-02-01T07:54:40.515Z,4.30
2023-02-01T07:57:34.181Z,4.40
2023-02-01T08:00:42.854Z,4.40
2023-02-01T08:03:33.092Z,4.40
2023-02-01T08:06:23.141Z,4.40
2023-02-01T08:09:12.204Z,4.50
2023-02-01T08:12:02.493Z,4.60
2023-02-01T08:14:52.110Z,4.70
2023-02-01T08:17:39.949Z,4.90
2023-02-01T08:20:28.355Z,4.80
2023-02-01T08:23:15.911Z,4.90
2023-02-01T08:26:11.547Z,4.90
2023-02-01T08:29:00.891Z,5.00
2023-02-01T08:31:52.003Z,5.00
2023-02-01T08:34:40.297Z,5.10
2023-02-01T08:37:28.779Z,5.10
2023-02-01T08:40:18.168Z,5.10
2023-02-01T08:43:07.155Z,5.20
2023-02-01T08:45:57.048Z,5.30
2023-02-01T08:48:47.983Z,5.30
2023-02-01T08:51:35.910Z,5.30
2023-02-01T08:54:23.917Z,3.50
2023-02-01T08:57:11.999Z,6.00
2023-02-01T09:00:00.639Z,5.40
2023-02-01T09:02:48.504Z,6.60
2023-02-01T09:05:49.067Z,5.70
2023-02-01T09:08:38.355Z,5.60
2023-02-01T09:11:29.196Z,5.60
2023-02-01T09:14:19.534Z,5.80
2023-02-01T09:17:10.241Z,5.60
2023-02-01T09:19:58.665Z,5.60
2023-02-01T09:22:51.647Z,6.70
2023-02-01T09:25:40.408Z,5.70
2023-02-01T09:28:28.060Z,6.80
2023-02-01T09:31:17.675Z,5.60
2023-02-01T09:34:07.829Z,5.60
2023-02-01T09:36:59.306Z,7.70
2023-02-01T09:39:50.434Z,5.60
2023-02-01T09:42:49.335Z,6.00
2023-02-01T09:45:42.965Z,5.80
2023-02-01T09:48:33.945Z,5.70
2023-02-01T09:51:24.530Z,6.10
2023-02-01T09:54:16.441Z,6.10
2023-02-01T09:57:09.522Z,5.90
2023-02-01T09:59:59.555Z,5.90
2023-02-01T10:02:47.116Z,6.20
2023-02-01T10:05:46.911Z,6.00
2023-02-01T10:08:38.087Z,6.10
2023-02-01T10:11:51.025Z,6.20
2023-02-01T10:14:49.594Z,6.70
2023-02-01T10:17:48.169Z,6.60
2023-02-01T10:20:49.721Z,6.30
2023-02-01T10:23:54.158Z,6.60
2023-02-01T10:26:51.619Z,6.50
2023-02-01T10:29:41.367Z,7.10
2023-02-01T10:32:33.162Z,6.80
2023-02-01T10:35:24.415Z,9.60
2023-02-01T10:38:17.854Z,7.00
2023-02-01T10:41:12.703Z,7.10
2023-02-01T10:44:04.500Z,7.10
2023-02-01T10:46:53.218Z,7.20
2023-02-01T10:49:49.987Z,7.30
2023-02-01T10:52:41.848Z,8.60
2023-02-01T10:55:41.016Z,6.30
2023-02-01T10:58:30.487Z,7.70
2023-02-01T11:01:20.436Z,8.80
2023-02-01T11:04:14.649Z,7.70
2023-02-01T11:07:11.705Z,7.80
2023-02-01T11:09:59.398Z,7.90
2023-02-01T11:12:55.347Z,8.10
2023-02-01T11:15:45.581Z,8.10
2023-02-01T11:18:34.748Z,8.20
2023-02-01T11:21:23.302Z,8.50
2023-02-01T11:24:34.286Z,8.50
2023-02-01T11:27:27.851Z,8.50
2023-02-01T11:30:19.323Z,8.50
2023-02-01T11:33:12.623Z,8.50
2023-02-01T11:36:00.553Z,8.60
2023-02-01T11:38:54.270Z,8.60
2023-02-01T11:41:59.702Z,9.00
2023-02-01T11:44:54.002Z,8.70
2023-02-01T11:47:42.355Z,8.70
2023-02-01T11:50:33.405Z,9.20
2023-02-01T11:53:31.623Z,9.30
2023-02-01T11:56:23.183Z,9.60
2023-02-01T11:59:20.581Z,9.50
2023-02-01T12:02:22.953Z,11.70
2023-02-01T12:05:20.422Z,9.10
2023-02-01T12:08:20.209Z,9.20
2023-02-01T12:11:23.944Z,9.30
2023-02-01T12:14:20.008Z,9.30
2023-02-01T12:17:25.358Z,11.40
2023-02-01T12:20:21.387Z,8.10
2023-02-01T12:23:19.652Z,7.50
2023-02-01T12:26:18.651Z,9.30
2023-02-01T12:29:14.426Z,9.40
2023-02-01T12:32:14.080Z,9.40
2023-02-01T12:35:16.804Z,10.00
2023-02-01T12:38:12.567Z,10.20
2023-02-01T12:41:06.176Z,9.90
2023-02-01T12:43:56.451Z,9.70
2023-02-01T12:46:49.779Z,10.00
2023-02-01T12:49:48.370Z,9.70
2023-02-01T12:52:40.159Z,9.60
2023-02-01T12:55:37.665Z,9.60
2023-02-01T12:58:27.219Z,9.50
2023-02-01T13:01:18.575Z,9.40
2023-02-01T13:04:15.803Z,8.50
2023-02-01T13:07:09.395Z,8.90
2023-02-01T13:10:00.525Z,9.60
2023-02-01T13:12:53.593Z,9.50
2023-02-01T13:15:43.134Z,11.40
2023-02-01T13:18:39.805Z,9.60
2023-02-01T13:21:29.684Z,9.70
2023-02-01T13:24:24.972Z,9.70
2023-02-01T13:27:13.698Z,9.60
2023-02-01T13:30:03.217Z,9.60
2023-02-01T13:33:53.559Z,9.90
2023-02-01T13:36:21.712Z,12.40
2023-02-01T13:39:31.426Z,9.70
2023-02-01T13:42:24.165Z,9.80
2023-02-01T13:45:17.450Z,9.80
2023-02-01T13:48:07.027Z,9.70
2023-02-01T13:50:56.216Z,9.80
2023-02-01T13:53:48.051Z,9.70
2023-02-01T13:56:43.716Z,9.70
2023-02-01T14:00:01.582Z,7.70
2023-02-01T14:03:17.152Z,9.60
2023-02-01T14:06:19.783Z,8.40
2023-02-01T14:09:21.579Z,9.60
2023-02-01T14:12:28.205Z,9.90
2023-02-01T14:15:24.948Z,9.50
2023-02-01T14:18:27.374Z,9.50
2023-02-01T14:21:23.831Z,9.70
2023-02-01T14:24:19.681Z,9.70
2023-02-01T14:27:18.784Z,8.60
2023-02-01T14:30:09.003Z,9.70
2023-02-01T14:32:56.933Z,9.70
2023-02-01T14:35:44.968Z,9.40
2023-02-01T14:38:35.224Z,11.90
2023-02-01T14:41:28.382Z,9.70
2023-02-01T14:44:26.880Z,9.50
2023-02-01T14:47:37.657Z,9.30
2023-02-01T14:50:37.874Z,9.80
2023-02-01T14:53:30.008Z,9.40
2023-02-01T14:56:27.054Z,9.30
2023-02-01T14:59:17.245Z,9.30
2023-02-01T15:02:17.764Z,9.20
2023-02-01T15:05:21.909Z,9.10
2023-02-01T15:08:16.929Z,9.30
2023-02-01T15:11:08.103Z,10.20
2023-02-01T15:13:58.356Z,9.40
2023-02-01T15:16:51.020Z,9.40
2023-02-01T15:19:39.799Z,9.10
2023-02-01T15:22:29.298Z,9.00
2023-02-01T15:25:21.730Z,9.30
2023-02-01T15:28:13.685Z,9.00
2023-02-01T15:31:05.613Z,8.90
2023-02-01T15:34:00.571Z,8.80
2023-02-01T15:37:03.116Z,7.50
2023-02-01T15:40:24.332Z,8.90
2023-02-01T15:43:14.594Z,9.40
2023-02-01T15:46:06.488Z,8.90
2023-02-01T15:48:55.648Z,8.90
2023-02-01T15:51:48.376Z,8.80
2023-02-01T15:54:43.828Z,9.00
2023-02-01T16:00:23.925Z,8.80
2023-02-01T16:08:56.828Z,8.70
2023-02-01T16:11:49.592Z,9.00
2023-02-01T16:14:37.924Z,8.70
2023-02-01T16:17:28.249Z,9.40
2023-02-01T16:23:06.562Z,8.80
2023-02-01T16:25:55.986Z,8.70
2023-02-01T16:28:43.657Z,8.70
2023-02-01T16:31:32.835Z,8.70
2023-02-01T16:34:23.037Z,8.50
2023-02-01T16:37:13.602Z,8.40
2023-02-01T16:40:01.090Z,8.20
2023-02-01T16:42:53.481Z,9.90
2023-02-01T16:45:44.911Z,9.80
2023-02-01T16:48:35.640Z,8.00
2023-02-01T16:51:24.193Z,8.30
2023-02-01T16:54:12.737Z,8.40
2023-02-01T16:57:00.973Z,8.20
2023-02-01T16:59:50.631Z,8.40
2023-02-01T17:02:39.846Z,8.50
2023-02-01T17:05:28.976Z,8.20
2023-02-01T17:08:19.883Z,8.30
2023-02-01T17:11:09.637Z,8.20
2023-02-01T17:14:01.927Z,9.20
2023-02-01T17:16:51.923Z,8.30
2023-02-01T17:19:42.017Z,10.30
2023-02-01T17:22:29.725Z,8.80
2023-02-01T17:25:18.354Z,8.20
2023-02-01T17:28:06.448Z,8.60
2023-02-01T17:30:54.232Z,8.70
2023-02-01T17:33:44.707Z,8.30
2023-02-01T17:36:33.235Z,8.50
2023-02-01T17:39:39.067Z,8.30
2023-02-01T17:42:28.093Z,8.20
2023-02-01T17:45:22.181Z,8.50
2023-02-01T17:48:10.520Z,8.10
2023-02-01T17:51:02.337Z,8.20
2023-02-01T17:53:50.525Z,10.70
2023-02-01T17:56:38.768Z,7.00
2023-02-01T17:59:26.754Z,8.20
2023-02-01T18:02:19.181Z,10.10
2023-02-01T18:05:15.471Z,8.30
2023-02-01T18:08:04.549Z,8.30
2023-02-01T18:10:53.192Z,8.40
2023-02-01T18:13:40.916Z,8.50
2023-02-01T18:16:29.248Z,8.10
2023-02-01T18:19:19.660Z,8.20
2023-02-01T18:22:07.491Z,8.20
2023-02-01T18:24:59.798Z,8.20
2023-02-01T18:27:48.102Z,8.10
2023-02-01T18:30:37.318Z,8.00
2023-02-01T18:33:25.412Z,8.00
2023-02-01T18:36:14.547Z,8.00
2023-02-01T18:39:03.476Z,8.00
2023-02-01T18:41:58.031Z,7.80
2023-02-01T18:44:45.526Z,8.00
2023-02-01T18:47:36.862Z,7.90
2023-02-01T18:50:27.067Z,8.00
2023-02-01T18:53:16.624Z,7.90
2023-02-01T18:56:06.719Z,8.40
2023-02-01T18:58:57.970Z,7.90
2023-02-01T19:01:46.003Z,6.50
2023-02-01T19:04:34.544Z,9.40
2023-02-01T19:07:25.657Z,8.00
2023-02-01T19:10:17.001Z,6.70
2023-02-01T19:13:05.297Z,9.90
2023-02-01T19:15:54.597Z,9.30
2023-02-01T19:18:44.670Z,9.10
2023-02-01T19:21:32.568Z,8.00
2023-02-01T19:24:24.565Z,7.70
2023-02-01T19:27:12.312Z,8.00
2023-02-01T19:30:02.456Z,8.00
2023-02-01T19:32:54.337Z,7.10
2023-02-01T19:35:42.177Z,8.20
2023-02-01T19:38:29.988Z,6.70
2023-02-01T19:41:18.818Z,9.60
2023-02-01T19:44:07.217Z,7.30
2023-02-01T19:46:56.625Z,5.90
2023-02-01T19:49:49.381Z,8.00
2023-02-01T19:52:39.124Z,6.30
2023-02-01T19:55:32.302Z,8.00
2023-02-01T19:58:21.728Z,8.00
2023-02-01T20:01:11.372Z,7.90
2023-02-01T20:04:01.975Z,8.00
2023-02-01T20:06:51.298Z,8.30
2023-02-01T20:09:41.251Z,8.00
2023-02-01T20:12:29.181Z,8.20
2023-02-01T20:15:18.004Z,8.00
2023-02-01T20:18:09.099Z,8.30
2023-02-01T20:20:58.445Z,7.90
2023-02-01T20:23:51.851Z,7.90
2023-02-01T20:26:43.273Z,8.00
2023-02-01T20:29:31.632Z,8.10
2023-02-01T20:32:20.368Z,8.00
2023-02-01T20:35:11.644Z,7.80
2023-02-01T20:38:02.022Z,8.00
2023-02-01T20:40:52.126Z,8.00
2023-02-01T20:43:39.734Z,8.00
2023-02-01T20:46:27.742Z,8.30
2023-02-01T20:49:19.330Z,7.90
2023-02-01T20:52:07.582Z,8.00
2023-02-01T20:54:57.324Z,8.20
2023-02-01T20:57:47.252Z,8.00
2023-02-01T21:00:36.584Z,8.10
2023-02-01T21:03:24.465Z,7.80
2023-02-01T21:06:15.419Z,8.00
2023-02-01T21:09:09.613Z,7.90
2023-02-01T21:11:57.352Z,8.20
2023-02-01T21:14:48.811Z,8.00
2023-02-01T21:17:39.377Z,8.00
2023-02-01T21:20:28.318Z,8.10
2023-02-01T21:23:19.089Z,8.20
2023-02-01T21:26:07.471Z,8.10
2023-02-01T21:28:56.856Z,8.00
2023-02-01T21:31:49.411Z,9.70
2023-02-01T21:34:38.094Z,8.10
2023-02-01T21:37:27.348Z,6.10
2023-02-01T21:40:15.785Z,8.10
2023-02-01T21:43:03.583Z,8.30
2023-02-01T21:45:51.599Z,8.30
2023-02-01T21:49:04.768Z,8.20
2023-02-01T21:51:57.600Z,5.90
2023-02-01T21:54:45.338Z,7.80
2023-02-01T21:57:33.534Z,8.30
2023-02-01T22:00:24.244Z,8.10
2023-02-01T22:03:11.966Z,10.00
2023-02-01T22:06:01.368Z,10.40
2023-02-01T22:08:50.017Z,8.10
2023-02-01T22:11:37.452Z,10.40
2023-02-01T22:14:25.332Z,10.50
2023-02-01T22:17:13.804Z,10.00
2023-02-01T22:20:01.431Z,8.10
2023-02-01T22:22:50.785Z,8.10
2023-02-01T22:25:38.744Z,8.20
2023-02-01T22:28:32.411Z,7.00
2023-02-01T22:31:23.869Z,8.50
2023-02-01T22:34:13.025Z,8.20
2023-02-01T22:37:03.331Z,8.10
2023-02-01T22:39:54.456Z,10.20
2023-02-01T22:42:42.121Z,9.20
2023-02-01T22:45:30.576Z,8.30
2023-02-01T22:48:18.683Z,8.10
2023-02-01T22:51:09.805Z,8.40
2023-02-01T22:53:58.882Z,8.10
2023-02-01T22:56:52.140Z,8.10
2023-02-01T22:59:41.039Z,8.10
2023-02-01T23:02:29.574Z,8.30
2023-02-01T23:05:18.006Z,8.20
2023-02-01T23:08:05.825Z,8.10
2023-02-01T23:10:58.656Z,10.30
2023-02-01T23:13:49.227Z,9.50
2023-02-01T23:16:39.196Z,8.20
2023-02-01T23:19:30.682Z,8.20
2023-02-01T23:22:20.727Z,8.20
2023-02-01T23:25:11.523Z,9.40
2023-02-01T23:27:59.209Z,8.20
2023-02-01T23:30:48.866Z,8.60
2023-02-01T23:33:37.301Z,8.20
2023-02-01T23:36:26.403Z,8.10
2023-02-01T23:39:13.855Z,8.10
2023-02-01T23:42:01.727Z,8.10
2023-02-01T23:44:49.672Z,8.20
2023-02-01T23:47:38.759Z,8.30
2023-02-01T23:50:26.900Z,8.50
2023-02-01T23:53:16.085Z,8.10
2023-02-01T23:56:04.830Z,8.60
2023-02-01T23:58:53.155Z,8.20
